California State Race - REDBLUFF RACE 1

Station: REDBLUFF RACE 1 - A Race

Distance: 203.062 Miles    

Release: 07-Oct-2019 07:40

Weather Release:    Arrival: CLEAR

Wind at Release: CALM     Wind at Arrival: CALM

Temp at Release: 34°    Temp at Arrival: 70°

Lofts: 80

Birds: 140

Clocked: 128

Good Luck to Everyone!
Drops Pos Breeder Pigeon Name Color Sex Ent Arrival Speed To Win Elg Pd
1 Frank Meder - CA 19044-AU19-TBW MLY H 1 11:19:17.70 1629.717 00:00:00 Yes
2 John Karnofel - CA 0008-AU19-KFL BC H 1 11:19:18.00 1629.680 00:00:00 Yes
3 Denis Eastwood - CA 0127-AU19-HANG BB H 1 11:19:20.50 1629.371 00:00:03 Yes
4 Pat Siino - CA 9126-AU19-COOK BB H 1 11:19:22.00 1629.185 00:00:04 Yes
5 Jim Vander Heide - CA 9272-AU19-GSF BC C 1 11:19:23.10 1629.049 00:00:05 Yes
6 Gold Star Loft - CA 1671-AU19-STON BB H 1 11:19:23.40 1629.012 00:00:06 Yes
7 Hung-Wen Hung - CA 19081-AU19-SVS BB C 1 11:19:24.30 1628.900 00:00:07 Yes
7 Robert Lin - CA 19084-AU19-SVS DCPD H 1 11:19:24.30 1628.900 00:00:07 Yes
7 Robert Lin - CA 19064-AU19-SVS BCWF C 2 11:19:24.30 1628.900 00:00:07 Yes
10 Dan Severns - CA 80739-AU19-MAN BB H 1 11:19:25.50 1628.752 00:00:08 Yes
11 Sal Perez - CA 0088-AU19-SFR BCWF H 1 11:19:26.60 1628.616 00:00:09 Yes
12 Wessel Family Lofts - CA 3029-AU19-ARC BB H 1 11:19:26.90 1628.579 00:00:09 Yes
12 Larry Cook - CA 2559-AU19-LCOO BB H 1 11:19:26.90 1628.579 00:00:09 Yes
14 Steve Hendricks - CA 3801-AU19-ARC BB H 1 11:19:27.40 1628.517 00:00:10 Yes
15 Silicon Valley Syndicates - CA 19065-AU19-SVS BBWF C 1 11:19:27.70 1628.480 00:00:10 Yes
16 Steve Sterchi - CA 1919-AU19-SR BB H 1 11:19:29.10 1628.307 00:00:11 Yes
17 Bieche & Lee - CA 9292-AU19-BIEC BB H 1 11:19:30.20 1628.171 00:00:12 Yes
18 Andrew Broster - CA 3740-AU19-ARC BB H 1 11:19:31.10 1628.059 00:00:13 Yes
19 Robert Justman - CA 90038-AU19-SOC BC C 1 11:19:31.60 1627.998 00:00:14 Lost
19 Armando De La O - CA 9117-AU19-COOK LTCK H 1 11:19:31.60 1627.998 00:00:14 Yes
21 Armando De La O - CA 9111-AU19-COOK BB H 2 11:19:33.70 1627.738 00:00:16 Yes
22 Joyce Stierlin - CA 19256-AU19-A BBSP H 1 11:19:34.40 1627.652 00:00:17 Yes
22 Andrew Broster - CA 3739-AU19-ARC BB H 2 11:19:34.40 1627.652 00:00:17 Yes
24 Christian Gluck - CA 0779-AU19-SD BC H 1 11:19:35.30 1627.540 00:00:18 Yes
25 Silicon Valley Syndicates - CA 19070-AU19-SVS BB H 2 11:19:37.20 1627.306 00:00:19 Yes
26 Master One - CA 9228-AU19-COOK BB H 1 11:19:38.00 1627.207 00:00:20 Yes
27 Pat Siino - CA 9118-AU19-COOK LTCK H 2 11:19:38.80 1627.108 00:00:21 Yes
28 Trina Dewitt - CA 1827-AU19-PASO DC C 1 11:19:47.60 1626.022 00:00:30 Yes
29 C.J. Watkins - CA 1836-AU19-PASO BB C 1 11:19:52.20 1625.455 00:00:34 Yes
29 Prout's Loft - CA 9345-AU19-GSF BB C 2 11:19:52.20 1625.455 00:00:34 Yes
31 Avelino Loft - CA 0379-AU19-HAN BBWF H 1 11:19:52.30 1625.443 00:00:35 Yes
32 Prout's Loft - CA 12579-AU19-ARPU BB H 1 11:19:52.70 1625.394 00:00:35 Yes
33 John Hedderson - CA 9311-AU19-GSF BB C 3 11:19:53.00 1625.357 00:00:35 Yes
34 Fred Belus - CA 0249-AU19-BPRC BC H 1 11:19:54.50 1625.172 00:00:37 Yes
35 Jim Looper - CA 1039-AU19-LOOP BB C 1 11:19:57.10 1624.852 00:00:39 Yes
36 Bieche & Lee - CA 9258-AU19-BIEC BB H 2 11:19:59.00 1624.618 00:00:41 Yes
36 Duane Gragg - CA 0933-AU19-KEY BB H 1 11:19:59.00 1624.618 00:00:41 Yes
38 De Vriend Lofts - CA 5768-AU19-FSC BBPH H 1 11:20:00.60 1624.421 00:00:43 Yes
38 C.J. Watkins - CA 1826-AU19-PASO DC H 2 11:20:00.60 1624.421 00:00:43 Yes
40 Wessel Family Lofts - CA 3027-AU19-ARC BB H 2 11:20:02.00 1624.249 00:00:44 Yes
41 Lopez/Saenz - CA 9092-AU19-CGR BB C 1 11:20:02.30 1624.212 00:00:45 Yes
41 Gary Robins - CA 9254-AU19-GSF BC C 4 11:20:02.30 1624.212 00:00:45 Yes
43 Jim Vander Heide - CA 0131-AU19-OCF BCTK H 1 11:20:02.90 1624.138 00:00:45 Yes
44 Darryl Coston - CA 1842-AU19-ARPU BC H 1 11:20:04.20 1623.978 00:00:46 Yes
45 Jim Edgeworth - CA 2739-AU19-ARPU BB C 1 11:20:04.70 1623.917 00:00:47 Yes
46 Dr. Kelly - CA 3327-AU19-ARC BBSP H 1 11:20:05.30 1623.843 00:00:48 Yes
47 John Hedderson - CA 9304-AU19-GSF BC C 5 11:21:27.60 1613.785 00:02:10 Yes
48 Dino D'ercole - CA 0507-AU19-SFR BB C 1 11:21:28.60 1613.664 00:02:11 Yes
49 Duane Gragg - CA 0997-AU19-KEY BC H 2 11:21:29.90 1613.506 00:02:12 Yes
50 Mihaela Chelaru - CA 0104-AU19-BPRC SIL C 1 11:21:33.70 1613.045 00:02:16 Yes
51 John Partridge - CA 9265-AU19-GSF BB C 6 11:21:35.90 1612.778 00:02:18 Yes
52 Jim Vander Heide - CA 0129-AU19-OCF BC C 2 11:21:36.50 1612.705 00:02:19 Yes
53 Silicon Valley Syndicates - CA 19079-AU19-SVS BBWF H 3 11:21:39.60 1612.329 00:02:22 Yes
54 Frank Meder - CA 19040-AU19-TBW BCWF C 2 11:26:25.10 1578.445 00:07:07 Yes
55 Robert Lin - CA 19078-AU19-SVS DC H 3 11:26:28.60 1578.038 00:07:11 Yes
56 Steve Paine - CA 0444-AU19-HOP BC 1 1 11:26:43.90 1576.264 00:07:26 Yes
57 Stanton Woody - CA 80510-AU19-MAN BB H 1 11:26:56.20 1574.840 00:07:38 Yes
58 Perez-Lafauci - CA 0084-AU19-SFR BC C 1 11:26:57.40 1574.701 00:07:40 Yes
59 Mike Belus - CA 9276-AU19-GSF BC C 7 11:26:57.80 1574.655 00:07:40 Yes
60 Armando Lopez - CA 1246-AU19-CHP BC C 1 11:26:59.60 1574.447 00:07:42 Yes
61 Mike Belus - CA 9355-AU19-GSF BC H 8 11:27:00.80 1574.308 00:07:43 Yes
62 Sal Perez - CA 0086-AU19-SFR DC H 2 11:27:05.50 1573.765 00:07:48 Yes
63 Sam Ochoa - CA 39676-AU19-AA BB 1 1 11:27:10.20 1573.222 00:07:52 Yes
64 Mathews Brothers - CA 0203-AU19-MATH RGRZ 0 1 11:30:38.80 1549.508 00:11:21 Yes
65 Chelaru Family Loft - CA 0127-AU19-BPRC BBWF C 1 11:30:40.70 1549.295 00:11:23 Yes
66 Richard Norgrove - CA 90866-AU19-SOC BC H 1 11:30:43.30 1549.004 00:11:26 Yes
66 Osty Loft - CA 4583-AU19-JEDD BB C 1 11:30:43.30 1549.004 00:11:26 Yes
68 Sal Perez - CA 0064-AU19-SFR BC C 3 11:30:45.40 1548.770 00:11:28 Yes
68 Gary Robins - CA 0005-AU19-OCF BC 0 1 11:30:45.40 1548.770 00:11:28 Yes
70 Dan Severns - CA 80741-AU19-MAN BC H 2 11:30:45.50 1548.758 00:11:28 Yes
71 Minerva Fernandez - CA 9229-AU19-COOK BB H 1 11:30:46.30 1548.669 00:11:29 Yes
71 Mike Gonigan - CA 80305-AU19-MAN BB H 1 11:30:46.30 1548.669 00:11:29 Yes
73 Jeff Decker - CA 1923-AU19-JTD BB 1 1 11:30:48.40 1548.434 00:11:31 Yes
74 Dino D'ercole - CA 0506-AU19-SFR BB H 2 11:31:07.40 1546.312 00:11:50 Yes
75 Stanton Woody - CA 80509-AU19-MAN BC H 2 11:31:10.30 1545.989 00:11:53 Yes
76 Lopez/Saenz - CA 1305-AU19-TCH BB H 2 11:34:25.80 1524.502 00:15:08 Yes
77 Marco Parra - CA 1004-AU19-TULE RCPD 0 1 11:34:28.20 1524.241 00:15:11 Yes
78 Joe Jauhal - CA 0140-AU19-WSJ DC C 1 11:34:34.70 1523.538 00:15:17 Lost
79 Humberto Saenz - CA 9057-AU19-CGR BB H 1 11:34:43.10 1522.629 00:15:25 Yes
80 Barbara Shulman - CA 2557-AU19-WSJ DC H 1 11:34:48.30 1522.067 00:15:31 Yes
81 Master One - CA 9225-AU19-COOK LTCK H 2 11:34:52.20 1521.646 00:15:34 Yes
82 Jenkins Racing - CA 0760-AU19-JENK BC C 1 11:34:53.90 1521.462 00:15:36 Yes
83 Pat Siino - CA 9248-AU19-COOK BC C 3 11:35:59.50 1514.413 00:16:42 Yes
84 Jim Cain - CA 6516-AU19-FSC BB H 1 11:43:01.40 1470.595 00:23:44 Yes
85 Vidal Gonzalez - CA 9262-AU19-GSF RC C 9 11:44:12.10 1463.499 00:24:54 Yes
86 Sal Perez - CA 14062-AU19-AA BC H 4 11:44:12.40 1463.469 00:24:55 Yes
87 Zack Jones - CA 1956-AU19-MTZ BC H 1 11:44:13.80 1463.329 00:24:56 Yes
88 Jim Cain - CA 6529-AU19-FSC BC H 2 11:44:14.10 1463.299 00:24:56 Yes
89 Gudino Loft - CA 3078-AU19-GSF BCPD C 1 11:44:15.00 1463.209 00:24:57 Yes
90 Gary Robins - CA 0120-AU19-OCF DC 0 2 11:44:15.60 1463.150 00:24:58 Yes
91 Joe Jauhal - CA 0132-AU19-WSJ BC C 2 11:44:16.20 1463.090 00:24:58 Yes
92 Richard Norgrove - CA 90875-AU19-SOC BC C 2 11:44:18.00 1462.910 00:25:00 Yes
93 Samuel Gomez - CA 5665-AU19-JEDD BBWF H 1 11:44:18.40 1462.870 00:25:01 Yes
94 Padilla - CA 0728-AU19-SFPC BB H 1 11:44:19.80 1462.730 00:25:02 Yes
95 John Partridge - CA 1648-AU19-PASO BC H 1 11:44:20.90 1462.621 00:25:03 Yes
96 Jim Edgeworth - CA 2740-AU19-ARPU BB H 2 11:44:25.10 1462.202 00:25:07 Lost
97 John Partridge - CA 9339-AU19-GSF BC C 10 11:44:26.30 1462.082 00:25:09 Yes
98 Padilla - CA 0729-AU19-SFPC BB C 2 11:44:28.70 1461.843 00:25:11 Yes
99 Bieche & Lee - CA 9331-AU19-BIEC BC H 3 11:44:32.50 1461.464 00:25:15 Yes
100 Barbara Shulman - CA 2552-AU19-WSJ BC H 2 11:44:33.00 1461.414 00:25:15 Yes

There are 127 bird records

Note: These Race Results are unofficial and subject to change until verified by the Race Committee and declared final.